Time;durP1;ratioP1;P1;durP2;ratioP2;P2;SDS_P1;SDS_P2;PMS_P1;PMS_P2;Temp;Humidity;BMP_temperature;BMP_pressure;BME280_temperature;BME280_humidity;BME280_pressure;Samples;Min_cycle;Max_cycle;Signal;HPM_P1;HPM_P2
2022/10/23 00:01:33;;;;;;;0.00;0.00;;;;;;;11.63;100.00;98654.09;6175052;23;20199;-61
2022/10/23 00:04:01;;;;;;;0.00;0.00;;;;;;;11.60;100.00;98650.03;6171609;23;20214;-60
2022/10/23 00:06:30;;;;;;;0.00;0.00;;;;;;;11.54;100.00;98650.66;6175323;23;20199;-61
2022/10/23 00:08:57;;;;;;;0.00;0.00;;;;;;;11.58;100.00;98656.38;6171804;23;20211;-61
2022/10/23 00:11:26;;;;;;;0.00;0.00;;;;;;;11.65;100.00;98660.84;6174992;23;20218;-60
2022/10/23 00:13:55;;;;;;;0.00;0.00;;;;;;;11.67;100.00;98661.47;6171936;23;20265;-61
2022/10/23 00:16:22;;;;;;;0.00;0.00;;;;;;;11.70;100.00;98656.91;6175348;23;20205;-61
2022/10/23 00:18:48;;;;;;;0.00;0.00;;;;;;;11.69;100.00;98658.72;6174926;23;20731;-61
2022/10/23 00:21:16;;;;;;;0.00;0.00;;;;;;;11.71;100.00;98654.16;6171149;23;20267;-61
2022/10/23 00:23:45;;;;;;;0.00;0.00;;;;;;;11.71;100.00;98650.69;6175338;23;20598;-61
2022/10/23 00:26:14;;;;;;;0.00;0.00;;;;;;;11.70;100.00;98649.06;6172051;23;20569;-60
2022/10/23 00:28:41;;;;;;;0.00;0.00;;;;;;;11.69;100.00;98642.19;6175741;23;20210;-61
2022/10/23 00:31:08;;;;;;;0.00;0.00;;;;;;;11.67;100.00;98653.63;6145391;23;20204;-61
2022/10/23 00:33:35;;;;;;;0.00;0.00;;;;;;;11.64;100.00;98655.75;6175269;23;20214;-61
2022/10/23 00:36:04;;;;;;;0.00;0.00;;;;;;;11.68;100.00;98654.47;6145064;23;20207;-61
2022/10/23 00:38:31;;;;;;;0.00;0.00;;;;;;;11.66;100.00;98653.78;6149089;23;20249;-61
2022/10/23 00:40:59;;;;;;;0.00;0.00;;;;;;;11.62;100.00;98655.09;6144826;23;20670;-61
2022/10/23 00:43:27;;;;;;;0.00;0.00;;;;;;;11.59;100.00;98658.00;6148772;23;20285;-60
2022/10/23 00:45:54;;;;;;;0.00;0.00;;;;;;;11.56;100.00;98655.72;6171917;23;20207;-61
2022/10/23 00:48:21;;;;;;;0.00;0.00;;;;;;;11.51;100.00;98651.78;6149142;23;20722;-61
2022/10/23 00:50:49;;;;;;;0.00;0.00;;;;;;;11.48;100.00;98656.50;6148905;23;20817;-61
2022/10/23 00:53:18;;;;;;;0.00;0.00;;;;;;;11.55;100.00;98648.84;6171287;23;20207;-60
2022/10/23 00:55:48;;;;;;;0.00;0.00;;;;;;;11.47;100.00;98641.78;6148862;23;20207;-61
2022/10/23 00:58:19;;;;;;;0.00;0.00;;;;;;;11.45;100.00;98641.13;6145703;23;20210;-61
2022/10/23 01:00:49;;;;;;;0.00;0.00;;;;;;;11.37;100.00;98641.88;6148698;23;20562;-61
2022/10/23 01:03:17;;;;;;;0.00;0.00;;;;;;;11.37;100.00;98636.66;6171798;23;20207;-61
2022/10/23 01:05:50;;;;;;;0.00;0.00;;;;;;;11.39;100.00;98629.50;6149284;23;20202;-61
2022/10/23 01:08:24;;;;;;;0.00;0.00;;;;;;;11.35;100.00;98638.63;6145710;23;20255;-61
2022/10/23 01:10:58;;;;;;;0.00;0.00;;;;;;;11.27;100.00;98646.41;6174810;23;20206;-61
2022/10/23 01:13:37;;;;;;;0.00;0.00;;;;;;;11.25;100.00;98643.13;6171905;23;20285;-60
2022/10/23 01:16:10;;;;;;;0.00;0.00;;;;;;;11.21;100.00;98638.22;6145083;23;20201;-60
2022/10/23 01:18:43;;;;;;;0.00;0.00;;;;;;;11.17;100.00;98642.09;6148948;23;20257;-60
2022/10/23 01:21:15;;;;;;;0.00;0.00;;;;;;;11.18;100.00;98637.72;6171479;23;20226;-60
2022/10/23 01:24:18;;;;;;;0.00;0.00;;;;;;;11.15;100.00;98638.81;6148907;23;20234;-61
2022/10/23 01:27:02;;;;;;;0.00;0.00;;;;;;;11.14;100.00;98639.00;6145903;23;20209;-61
2022/10/23 01:29:36;;;;;;;0.00;0.00;;;;;;;11.13;100.00;98637.34;6146113;23;20206;-61
2022/10/23 01:32:07;;;;;;;0.00;0.00;;;;;;;11.22;100.00;98636.44;6146282;23;20354;-61
2022/10/23 01:34:42;;;;;;;0.00;0.00;;;;;;;11.18;100.00;98625.47;6150822;23;20209;-61
2022/10/23 01:37:13;;;;;;;0.00;0.00;;;;;;;11.15;100.00;98617.13;6173478;23;20201;-61
2022/10/23 01:39:48;;;;;;;0.00;0.00;;;;;;;11.10;100.00;98630.66;6150955;23;20227;-61
2022/10/23 01:42:20;;;;;;;0.00;0.00;;;;;;;11.10;100.00;98638.50;6173077;23;20209;-61
2022/10/23 01:44:53;;;;;;;0.00;0.00;;;;;;;11.15;100.00;98625.75;6149730;23;20213;-61
2022/10/23 01:47:25;;;;;;;0.00;0.00;;;;;;;11.14;100.00;98612.88;6148038;23;20630;-61
2022/10/23 01:50:02;;;;;;;0.00;0.00;;;;;;;11.13;100.00;98619.88;6147247;23;20205;-62
2022/10/23 01:52:29;;;;;;;0.00;0.00;;;;;;;11.14;100.00;98623.31;6150216;23;20268;-61
2022/10/23 01:55:00;;;;;;;0.00;0.00;;;;;;;11.17;100.00;98609.94;6146730;23;20202;-61
2022/10/23 01:57:31;;;;;;;0.00;0.00;;;;;;;11.25;100.00;98614.38;6150599;23;20302;-61
2022/10/23 02:00:05;;;;;;;0.00;0.00;;;;;;;11.21;100.00;98611.28;6147045;23;20249;-61
2022/10/23 02:02:39;;;;;;;0.00;0.00;;;;;;;11.22;100.00;98610.31;6150187;23;20253;-61
2022/10/23 02:05:11;;;;;;;0.00;0.00;;;;;;;11.25;100.00;98598.72;6147304;23;20386;-61
2022/10/23 02:07:38;;;;;;;0.00;0.00;;;;;;;11.23;100.00;98604.91;6150507;23;20210;-61
2022/10/23 02:10:08;;;;;;;0.00;0.00;;;;;;;11.21;100.00;98593.00;6146835;23;20206;-61
2022/10/23 02:12:45;;;;;;;0.00;0.00;;;;;;;11.20;100.00;98592.16;6149833;23;20214;-60
2022/10/23 02:15:19;;;;;;;0.00;0.00;;;;;;;11.21;100.00;98582.53;6146039;23;20274;-60
2022/10/23 02:17:54;;;;;;;0.00;0.00;;;;;;;11.23;100.00;98580.59;6174778;23;20207;-61
2022/10/23 02:20:27;;;;;;;0.00;0.00;;;;;;;11.27;100.00;98570.63;6147375;23;20217;-61
2022/10/23 02:23:00;;;;;;;0.00;0.00;;;;;;;11.27;100.00;98566.25;6146669;23;20241;-61
2022/10/23 02:25:32;;;;;;;0.00;0.00;;;;;;;11.28;100.00;98567.88;6150217;23;20203;-61
2022/10/23 02:28:04;;;;;;;0.00;0.00;;;;;;;11.30;100.00;98560.69;6146639;23;20211;-61
2022/10/23 02:30:42;;;;;;;0.00;0.00;;;;;;;11.34;100.00;98555.97;6150085;23;20210;-61
2022/10/23 02:33:13;;;;;;;0.00;0.00;;;;;;;11.31;100.00;98559.72;6146713;23;20199;-61
2022/10/23 02:35:40;;;;;;;0.00;0.00;;;;;;;11.35;100.00;98563.66;6150469;23;20199;-61
2022/10/23 02:38:30;;;;;;;0.00;0.00;;;;;;;11.36;100.00;98560.06;6147570;23;20696;-61
2022/10/23 02:41:00;;;;;;;0.00;0.00;;;;;;;11.35;100.00;98566.28;6145523;23;20236;-61
2022/10/23 02:43:34;;;;;;;0.00;0.00;;;;;;;11.48;100.00;98568.44;6149424;23;20229;-61
2022/10/23 02:46:15;;;;;;;0.00;0.00;;;;;;;11.37;100.00;98564.31;6146573;23;20206;-61
2022/10/23 02:48:48;;;;;;;0.00;0.00;;;;;;;11.33;100.00;98567.41;6150004;23;20568;-61
2022/10/23 02:51:20;;;;;;;0.00;0.00;;;;;;;11.38;100.00;98567.75;6145866;23;20217;-61
2022/10/23 02:53:53;;;;;;;0.00;0.00;;;;;;;11.28;100.00;98570.50;6150441;23;20645;-61
2022/10/23 02:56:28;;;;;;;0.00;0.00;;;;;;;11.25;100.00;98568.19;6147426;23;20233;-61
2022/10/23 02:59:03;;;;;;;0.00;0.00;;;;;;;11.18;100.00;98562.75;6146529;23;20575;-61
2022/10/23 03:01:38;;;;;;;0.00;0.00;;;;;;;11.18;100.00;98562.75;6149365;23;20213;-61
2022/10/23 03:04:06;;;;;;;0.00;0.00;;;;;;;11.12;100.00;98563.41;6146251;23;20528;-61
2022/10/23 03:06:33;;;;;;;0.00;0.00;;;;;;;11.12;100.00;98555.56;6150224;23;20206;-61
2022/10/23 03:09:04;;;;;;;0.00;0.00;;;;;;;11.10;100.00;98546.25;6146374;23;20326;-61
2022/10/23 03:11:30;;;;;;;0.00;0.00;;;;;;;11.04;100.00;98545.88;6149600;23;20214;-60
2022/10/23 03:13:57;;;;;;;0.00;0.00;;;;;;;11.00;100.00;98547.16;6145688;23;20234;-60
2022/10/23 03:16:24;;;;;;;0.00;0.00;;;;;;;10.97;100.00;98544.06;6149468;23;20212;-61
2022/10/23 03:18:55;;;;;;;0.00;0.00;;;;;;;10.92;100.00;98553.19;6146170;23;20224;-62
2022/10/23 03:21:22;;;;;;;0.00;0.00;;;;;;;10.88;100.00;98543.19;6148962;23;20237;-61
2022/10/23 03:23:52;;;;;;;0.00;0.00;;;;;;;10.88;100.00;98545.78;6149558;23;20705;-61
2022/10/23 03:26:25;;;;;;;0.00;0.00;;;;;;;10.89;100.00;98536.97;6171314;23;20206;-61
2022/10/23 03:28:52;;;;;;;0.00;0.00;;;;;;;10.93;100.00;98526.09;6149470;23;20202;-61
2022/10/23 03:31:20;;;;;;;0.00;0.00;;;;;;;11.04;100.00;98513.72;6118928;23;20596;-61
2022/10/23 03:33:49;;;;;;;0.00;0.00;;;;;;;11.09;100.00;98506.25;6148673;23;20201;-61
2022/10/23 03:36:17;;;;;;;0.00;0.00;;;;;;;11.13;100.00;98515.38;6146244;23;20273;-61
2022/10/23 03:38:44;;;;;;;0.00;0.00;;;;;;;11.16;100.00;98514.25;6149238;23;20233;-60
2022/10/23 03:41:11;;;;;;;0.00;0.00;;;;;;;11.12;100.00;98515.56;6138528;23;20262;-61
2022/10/23 03:43:38;;;;;;;0.00;0.00;;;;;;;11.15;100.00;98517.84;6146140;23;20214;-60
2022/10/23 03:46:16;;;;;;;0.00;0.00;;;;;;;11.14;100.00;98526.66;6230898;23;20259;-56
2022/10/23 03:48:43;;;;;;;0.00;0.00;;;;;;;11.25;100.00;98522.94;6209026;23;20196;-57
2022/10/23 03:51:10;;;;;;;0.00;0.00;;;;;;;11.29;100.00;98519.88;6199964;23;20719;-57
2022/10/23 03:53:41;;;;;;;0.00;0.00;;;;;;;11.29;100.00;98516.41;6203340;23;20202;-57
2022/10/23 03:56:08;;;;;;;0.00;0.00;;;;;;;11.25;100.00;98512.47;6201997;23;20260;-58
2022/10/23 03:58:34;;;;;;;0.00;0.00;;;;;;;11.27;100.00;98518.38;6204259;23;20204;-58
2022/10/23 04:01:01;;;;;;;0.00;0.00;;;;;;;11.25;100.00;98518.53;6199797;23;20230;-58
2022/10/23 04:03:27;;;;;;;0.00;0.00;;;;;;;11.34;100.00;98529.84;6203784;23;20259;-59
2022/10/23 04:05:54;;;;;;;0.00;0.00;;;;;;;11.36;100.00;98536.56;6200467;23;20394;-58
2022/10/23 04:08:22;;;;;;;0.00;0.00;;;;;;;11.42;100.00;98531.66;6198245;23;20227;-58
2022/10/23 04:10:53;;;;;;;0.00;0.00;;;;;;;11.50;100.00;98531.69;6178517;23;20210;-58
2022/10/23 04:13:26;;;;;;;0.00;0.00;;;;;;;11.66;100.00;98520.44;6202724;23;20225;-58
2022/10/23 04:15:53;;;;;;;0.00;0.00;;;;;;;11.71;100.00;98533.03;6175089;23;20214;-59
2022/10/23 04:18:20;;;;;;;0.00;0.00;;;;;;;11.72;100.00;98535.50;6203683;23;20517;-58
2022/10/23 04:20:48;;;;;;;0.00;0.00;;;;;;;11.75;100.00;98535.19;6205117;23;20575;-58
2022/10/23 04:23:15;;;;;;;0.00;0.00;;;;;;;11.79;100.00;98527.81;6201739;23;20281;-59
2022/10/23 04:25:42;;;;;;;0.00;0.00;;;;;;;11.86;100.00;98536.66;6203679;23;20986;-59
2022/10/23 04:28:10;;;;;;;0.00;0.00;;;;;;;11.90;100.00;98537.97;6200317;23;20209;-58
2022/10/23 04:30:40;;;;;;;0.00;0.00;;;;;;;11.89;100.00;98536.34;6203560;23;20641;-57
2022/10/23 04:33:08;;;;;;;0.00;0.00;;;;;;;11.86;100.00;98520.16;6199550;23;20249;-58
2022/10/23 04:35:35;;;;;;;0.00;0.00;;;;;;;11.85;100.00;98521.13;6202879;23;20707;-58
2022/10/23 04:38:02;;;;;;;0.00;0.00;;;;;;;11.77;100.00;98525.38;6201714;23;20222;-64
2022/10/23 04:40:29;;;;;;;0.00;0.00;;;;;;;11.71;100.00;98517.34;6203846;23;20209;-59
2022/10/23 04:42:55;;;;;;;0.00;0.00;;;;;;;11.65;100.00;98522.25;6175163;23;20225;-58
2022/10/23 04:45:23;;;;;;;0.00;0.00;;;;;;;11.57;100.00;98521.41;6178633;23;20668;-59
2022/10/23 04:47:52;;;;;;;0.00;0.00;;;;;;;11.48;100.00;98510.13;6205021;23;20227;-59
2022/10/23 04:50:19;;;;;;;0.00;0.00;;;;;;;11.38;100.00;98507.63;6175446;23;20236;-58
2022/10/23 04:53:04;;;;;;;0.00;0.00;;;;;;;11.42;100.00;98511.56;6201833;23;20248;-55
2022/10/23 04:55:51;;;;;;;0.00;0.00;;;;;;;11.40;100.00;98515.34;6205757;23;20348;-57
2022/10/23 04:58:34;;;;;;;0.00;0.00;;;;;;;11.32;100.00;98514.31;6176118;23;20225;-57
2022/10/23 05:01:03;;;;;;;0.00;0.00;;;;;;;11.29;100.00;98508.59;6200076;23;20228;-58
2022/10/23 05:03:29;;;;;;;0.00;0.00;;;;;;;11.26;100.00;98508.91;6203684;23;20276;-58
2022/10/23 05:05:56;;;;;;;0.00;0.00;;;;;;;11.33;100.00;98512.50;6202377;23;20208;-57
2022/10/23 05:08:40;;;;;;;0.00;0.00;;;;;;;11.36;100.00;98506.97;6207762;23;20205;-59
2022/10/23 05:11:35;;;;;;;0.00;0.00;;;;;;;11.40;100.00;98504.88;6203519;23;20210;-58
2022/10/23 05:14:06;;;;;;;0.00;0.00;;;;;;;11.44;100.00;98499.16;6202182;23;20196;-58
2022/10/23 05:16:37;;;;;;;0.00;0.00;;;;;;;11.48;100.00;98492.63;6180395;23;20202;-58
2022/10/23 05:19:07;;;;;;;0.00;0.00;;;;;;;11.50;100.00;98485.44;6202512;23;20206;-59
2022/10/23 05:21:35;;;;;;;0.00;0.00;;;;;;;11.52;100.00;98485.31;6207115;23;20253;-59
2022/10/23 05:24:05;;;;;;;0.00;0.00;;;;;;;11.54;100.00;98488.59;6201105;23;20206;-60
2022/10/23 05:26:33;;;;;;;0.00;0.00;;;;;;;11.57;100.00;98476.97;6180780;23;20207;-58
2022/10/23 05:29:05;;;;;;;0.00;0.00;;;;;;;11.57;100.00;98476.97;6176655;23;20195;-59
2022/10/23 05:31:35;;;;;;;0.00;0.00;;;;;;;11.62;100.00;98475.53;6205304;23;20210;-59
2022/10/23 05:34:12;;;;;;;0.00;0.00;;;;;;;11.62;100.00;98470.28;6164086;23;20528;-62
2022/10/23 05:36:42;;;;;;;0.00;0.00;;;;;;;11.74;100.00;98477.81;6177286;23;20197;-58
2022/10/23 05:39:09;;;;;;;0.00;0.00;;;;;;;11.67;100.00;98469.78;6177079;23;20293;-57
2022/10/23 05:41:36;;;;;;;0.00;0.00;;;;;;;11.63;100.00;98471.09;6205424;23;20220;-56
2022/10/23 05:44:03;;;;;;;0.00;0.00;;;;;;;11.68;100.00;98479.28;6201165;23;20210;-58
2022/10/23 05:46:52;;;;;;;0.00;0.00;;;;;;;11.60;100.00;98469.63;6180382;23;20211;-58
2022/10/23 05:49:39;;;;;;;0.00;0.00;;;;;;;11.60;100.00;98469.63;6203479;23;20210;-57
2022/10/23 05:52:24;;;;;;;0.00;0.00;;;;;;;11.62;100.00;98475.53;6203785;23;20216;-59
2022/10/23 05:55:08;;;;;;;0.00;0.00;;;;;;;11.62;100.00;98470.28;6177066;23;20208;-59
2022/10/23 05:57:54;;;;;;;0.00;0.00;;;;;;;11.62;100.00;98467.69;6176924;23;20201;-60
2022/10/23 06:00:38;;;;;;;0.00;0.00;;;;;;;11.65;100.00;98466.53;6205147;23;20206;-58
2022/10/23 06:03:25;;;;;;;0.00;0.00;;;;;;;11.64;100.00;98465.72;6203889;23;20228;-60
2022/10/23 06:05:52;;;;;;;0.00;0.00;;;;;;;11.70;100.00;98468.63;6206986;23;20210;-58
2022/10/23 06:08:23;;;;;;;0.00;0.00;;;;;;;11.75;100.00;98475.03;6177233;23;20206;-59
2022/10/23 06:10:50;;;;;;;0.00;0.00;;;;;;;11.80;100.00;98464.91;6179787;23;20202;-58
2022/10/23 06:13:18;;;;;;;0.00;0.00;;;;;;;11.88;100.00;98469.31;6203604;23;20201;-57
2022/10/23 06:15:44;;;;;;;0.00;0.00;;;;;;;11.91;100.00;98463.75;6205274;23;20205;-57
2022/10/23 06:18:17;;;;;;;0.00;0.00;;;;;;;11.94;100.00;98462.63;6201315;23;20199;-55
2022/10/23 06:20:55;;;;;;;0.00;0.00;;;;;;;11.92;100.00;98457.53;6176432;23;20579;-58
2022/10/23 06:23:25;;;;;;;0.00;0.00;;;;;;;11.89;100.00;98463.09;6205229;23;20274;-58
2022/10/23 06:26:24;;;;;;;0.00;0.00;;;;;;;11.88;100.00;98461.47;6180469;23;20230;-57
2022/10/23 06:28:56;;;;;;;0.00;0.00;;;;;;;11.84;100.00;98459.34;6201802;23;20205;-59
2022/10/23 06:31:25;;;;;;;0.00;0.00;;;;;;;11.78;100.00;98463.41;6204944;23;20230;-57
2022/10/23 06:33:54;;;;;;;0.00;0.00;;;;;;;11.74;100.00;98454.25;6201277;23;20221;-57
2022/10/23 06:36:22;;;;;;;0.00;0.00;;;;;;;11.71;100.00;98457.19;6205072;23;20205;-58
2022/10/23 06:38:48;;;;;;;0.00;0.00;;;;;;;11.71;100.00;98460.66;6205930;23;20207;-58
2022/10/23 06:41:18;;;;;;;0.00;0.00;;;;;;;11.74;100.00;98469.97;6201215;23;20268;-60
2022/10/23 06:43:48;;;;;;;0.00;0.00;;;;;;;11.71;100.00;98463.25;6205049;23;20206;-59
2022/10/23 06:46:22;;;;;;;0.00;0.00;;;;;;;11.73;100.00;98466.53;6201571;23;20280;-58
2022/10/23 06:49:07;;;;;;;0.00;0.00;;;;;;;11.77;100.00;98482.72;6203227;23;20691;-59
2022/10/23 06:51:45;;;;;;;0.00;0.00;;;;;;;11.78;100.00;98473.88;6204640;23;20214;-58
2022/10/23 06:54:13;;;;;;;0.00;0.00;;;;;;;11.81;100.00;98474.38;6201631;23;20206;-59
2022/10/23 06:56:58;;;;;;;0.00;0.00;;;;;;;11.86;100.00;98479.13;6203057;23;20280;-58
2022/10/23 06:59:35;;;;;;;0.00;0.00;;;;;;;11.85;100.00;98482.72;6204857;23;20232;-58
2022/10/23 07:02:03;;;;;;;0.00;0.00;;;;;;;11.89;100.00;98480.59;6175255;23;20210;-59
2022/10/23 07:04:30;;;;;;;0.00;0.00;;;;;;;11.91;100.00;98482.06;6204636;23;20206;-58
2022/10/23 07:06:59;;;;;;;0.00;0.00;;;;;;;11.94;100.00;98481.75;6176188;23;20202;-58
2022/10/23 07:09:32;;;;;;;0.00;0.00;;;;;;;12.00;100.00;98490.78;6179816;23;20197;-58
2022/10/23 07:12:17;;;;;;;0.00;0.00;;;;;;;11.99;100.00;98490.91;6202807;23;20215;-58
2022/10/23 07:14:50;;;;;;;0.00;0.00;;;;;;;12.02;100.00;98495.84;6204997;23;20285;-57
2022/10/23 07:17:17;;;;;;;0.00;0.00;;;;;;;12.07;100.00;98490.94;6200984;23;20214;-56
2022/10/23 07:19:44;;;;;;;0.00;0.00;;;;;;;12.10;100.00;98496.66;6204682;23;20230;-59
2022/10/23 07:22:13;;;;;;;0.00;0.00;;;;;;;12.20;100.00;98493.88;6200708;23;20281;-58
2022/10/23 07:24:47;;;;;;;0.00;0.00;;;;;;;12.27;100.00;98496.63;6204753;23;20210;-57
2022/10/23 07:27:25;;;;;;;0.00;0.00;;;;;;;12.32;100.00;98494.34;6201671;23;20215;-58
2022/10/23 07:29:57;;;;;;;0.00;0.00;;;;;;;12.35;100.00;98488.78;6175289;23;20202;-57
2022/10/23 07:32:27;;;;;;;0.00;0.00;;;;;;;12.39;100.00;98477.00;6204017;23;20275;-58
2022/10/23 07:35:19;;;;;;;0.00;0.00;;;;;;;12.45;100.00;98478.16;6202960;23;20560;-57
2022/10/23 07:38:08;;;;;;;0.00;0.00;;;;;;;12.44;100.00;98471.28;6202061;23;20497;-57
2022/10/23 07:40:38;;;;;;;0.00;0.00;;;;;;;12.49;100.00;98468.16;6204320;23;20208;-57
2022/10/23 07:43:06;;;;;;;0.00;0.00;;;;;;;12.53;100.00;98465.03;6175474;23;20208;-57
2022/10/23 07:45:34;;;;;;;0.00;0.00;;;;;;;12.57;100.00;98465.50;6178667;23;20706;-57
2022/10/23 07:48:08;;;;;;;0.00;0.00;;;;;;;12.61;100.00;98458.94;6201162;23;20298;-57
2022/10/23 07:50:59;;;;;;;0.00;0.00;;;;;;;12.67;100.00;98465.34;6202196;23;20578;-58
2022/10/23 07:53:27;;;;;;;0.00;0.00;;;;;;;12.72;100.00;98470.84;6204355;23;20284;-59
2022/10/23 07:56:00;;;;;;;0.00;0.00;;;;;;;12.74;100.00;98471.50;6200838;23;20826;-57
2022/10/23 07:58:42;;;;;;;0.00;0.00;;;;;;;12.76;100.00;98476.59;6204627;23;20225;-58
2022/10/23 08:01:19;;;;;;;0.00;0.00;;;;;;;12.84;100.00;98485.22;6200401;23;20211;-58
2022/10/23 08:03:46;;;;;;;0.00;0.00;;;;;;;12.91;100.00;98489.78;6179098;23;20565;-57
2022/10/23 08:06:13;;;;;;;0.00;0.00;;;;;;;13.04;100.00;98503.19;6202423;23;20225;-58
2022/10/23 08:08:42;;;;;;;0.00;0.00;;;;;;;13.14;100.00;98495.13;6204169;23;20281;-57
2022/10/23 08:11:12;;;;;;;0.00;0.00;;;;;;;13.30;100.00;98504.72;6200542;23;20726;-59
2022/10/23 08:13:46;;;;;;;0.00;0.00;;;;;;;13.35;100.00;98518.13;6204243;23;20562;-57
2022/10/23 08:16:13;;;;;;;0.00;0.00;;;;;;;13.49;100.00;98519.22;6200281;23;20264;-58
2022/10/23 08:19:07;;;;;;;0.00;0.00;;;;;;;13.59;100.00;98516.38;6166915;23;20241;-59
2022/10/23 08:21:36;;;;;;;0.00;0.00;;;;;;;13.73;100.00;98522.69;6203739;23;20212;-59
2022/10/23 08:24:05;;;;;;;0.00;0.00;;;;;;;13.77;98.81;98520.56;6200527;23;20203;-59
2022/10/23 08:26:32;;;;;;;0.00;0.00;;;;;;;13.95;99.06;98522.88;6205516;23;20632;-56
2022/10/23 08:28:59;;;;;;;0.00;0.00;;;;;;;14.09;99.47;98490.63;6200688;23;20214;-58
2022/10/23 08:31:27;;;;;;;0.00;0.00;;;;;;;14.26;99.11;98495.75;6178736;23;20208;-58
2022/10/23 08:34:27;;;;;;;0.00;0.00;;;;;;;14.47;98.43;98490.59;6183967;23;20207;-58
2022/10/23 08:36:54;;;;;;;0.00;0.00;;;;;;;14.62;97.86;98492.41;6175179;23;20250;-59
2022/10/23 08:39:28;;;;;;;0.00;0.00;;;;;;;14.64;96.14;98498.31;6177163;23;20754;-61
2022/10/23 08:42:20;;;;;;;0.00;0.00;;;;;;;14.87;95.42;98486.94;6161051;23;20282;-58
2022/10/23 08:44:55;;;;;;;0.00;0.00;;;;;;;15.11;94.83;98474.50;6178500;23;20297;-57
2022/10/23 08:47:27;;;;;;;0.00;0.00;;;;;;;15.27;93.28;98471.66;6175808;23;20206;-56
2022/10/23 08:50:23;;;;;;;0.00;0.00;;;;;;;15.49;93.10;98472.50;6201793;23;20569;-58
2022/10/23 08:52:56;;;;;;;0.00;0.00;;;;;;;15.62;91.70;98461.28;6205016;23;20203;-58
2022/10/23 08:55:29;;;;;;;0.00;0.00;;;;;;;15.62;92.06;98466.53;6202300;23;20208;-57
2022/10/23 08:58:00;;;;;;;0.00;0.00;;;;;;;15.71;90.06;98459.34;6201725;23;20203;-59
2022/10/23 09:00:30;;;;;;;0.00;0.00;;;;;;;15.85;90.33;98456.84;6205286;23;20220;-57
2022/10/23 09:03:01;;;;;;;0.00;0.00;;;;;;;15.98;90.30;98450.91;6201762;23;20581;-58
2022/10/23 09:05:32;;;;;;;0.00;0.00;;;;;;;16.04;90.20;98442.25;6205522;23;20207;-57
2022/10/23 09:08:16;;;;;;;0.00;0.00;;;;;;;16.08;90.40;98439.03;6199881;23;20204;-57
2022/10/23 09:10:58;;;;;;;0.00;0.00;;;;;;;16.16;90.31;98426.72;6205408;23;20200;-58
2022/10/23 09:13:43;;;;;;;0.00;0.00;;;;;;;16.24;91.91;98413.41;6202693;23;20279;-59
2022/10/23 09:16:18;;;;;;;0.00;0.00;;;;;;;16.28;90.07;98427.81;6201779;23;20207;-58
2022/10/23 09:18:48;;;;;;;0.00;0.00;;;;;;;16.38;89.05;98411.69;6205334;23;20543;-58
2022/10/23 09:21:14;;;;;;;0.00;0.00;;;;;;;16.49;88.79;98416.38;6201555;23;20285;-57
2022/10/23 09:23:41;;;;;;;0.00;0.00;;;;;;;16.62;88.65;98417.47;6203595;23;20280;-58
2022/10/23 09:26:14;;;;;;;0.00;0.00;;;;;;;16.82;88.95;98430.75;6201885;23;20216;-58
2022/10/23 09:28:46;;;;;;;0.00;0.00;;;;;;;17.00;87.40;98437.31;6205619;23;20263;-58
2022/10/23 09:31:13;;;;;;;0.00;0.00;;;;;;;17.06;85.49;98426.81;6201668;23;22400;-59
2022/10/23 09:33:40;;;;;;;0.00;0.00;;;;;;;16.93;85.64;98419.66;6203865;23;20205;-58
2022/10/23 09:36:18;;;;;;;0.00;0.00;;;;;;;17.05;83.90;98427.00;6202016;23;20198;-58
2022/10/23 09:38:49;;;;;;;0.00;0.00;;;;;;;17.09;83.63;98426.41;6203769;23;20647;-56
2022/10/23 09:41:20;;;;;;;0.00;0.00;;;;;;;17.14;86.44;98415.25;6174804;23;20702;-57
2022/10/23 09:43:47;;;;;;;0.00;0.00;;;;;;;17.23;84.43;98421.19;6205777;23;20210;-57
2022/10/23 09:46:19;;;;;;;0.00;0.00;;;;;;;17.19;83.67;98425.22;6174770;23;20230;-58
2022/10/23 09:48:46;;;;;;;0.00;0.00;;;;;;;17.25;80.41;98427.06;6205246;23;20271;-58
2022/10/23 09:51:18;;;;;;;0.00;0.00;;;;;;;17.27;83.77;98428.50;6201604;23;20213;-59
2022/10/23 09:53:50;;;;;;;0.00;0.00;;;;;;;17.22;80.69;98432.75;6206946;23;20201;-58
2022/10/23 09:56:27;;;;;;;0.00;0.00;;;;;;;17.46;76.28;98435.84;6203587;23;20206;-58
2022/10/23 09:58:56;;;;;;;0.00;0.00;;;;;;;17.52;72.38;98433.22;6203626;23;20206;-58
2022/10/23 10:01:26;;;;;;;0.00;0.00;;;;;;;17.61;72.54;98430.38;6206350;23;20206;-58
2022/10/23 10:03:56;;;;;;;0.00;0.00;;;;;;;17.64;71.47;98416.78;6201836;23;20212;-60
2022/10/23 10:06:27;;;;;;;0.00;0.00;;;;;;;17.90;71.55;98409.91;6204630;23;20237;-57
2022/10/23 10:08:56;;;;;;;0.00;0.00;;;;;;;17.89;70.30;98403.00;6203585;23;20528;-58
2022/10/23 10:11:33;;;;;;;0.00;0.00;;;;;;;18.09;69.43;98408.28;6206743;23;20215;-58
2022/10/23 10:14:18;;;;;;;0.00;0.00;;;;;;;18.21;70.40;98393.44;6203465;23;20277;-56
2022/10/23 10:16:51;;;;;;;0.00;0.00;;;;;;;18.17;69.42;98396.66;6207175;23;20684;-58
2022/10/23 10:19:43;;;;;;;0.00;0.00;;;;;;;18.15;67.91;98400.34;6203247;23;20228;-58
2022/10/23 10:22:24;;;;;;;0.00;0.00;;;;;;;17.89;71.40;98418.84;6202954;23;20277;-58
2022/10/23 10:24:56;;;;;;;0.00;0.00;;;;;;;17.90;73.58;98420.47;6180117;23;20289;-58
2022/10/23 10:27:39;;;;;;;0.00;0.00;;;;;;;18.01;73.31;98419.88;6203456;23;20212;-58
2022/10/23 10:30:13;;;;;;;0.00;0.00;;;;;;;17.90;74.93;98423.09;6203244;23;20210;-57
2022/10/23 10:32:46;;;;;;;0.00;0.00;;;;;;;18.07;73.54;98424.31;6206401;23;20267;-59
2022/10/23 10:35:25;;;;;;;0.00;0.00;;;;;;;18.01;73.03;98409.31;6203314;23;21467;-58
2022/10/23 10:38:20;;;;;;;0.00;0.00;;;;;;;18.07;74.29;98403.19;6207056;23;20195;-59
2022/10/23 10:40:54;;;;;;;0.00;0.00;;;;;;;18.24;72.53;98398.31;6203779;23;20207;-56
2022/10/23 10:43:35;;;;;;;0.00;0.00;;;;;;;18.36;71.73;98405.59;6203741;23;20199;-58
2022/10/23 10:46:08;;;;;;;0.00;0.00;;;;;;;18.41;70.65;98401.31;6203212;23;20495;-59
2022/10/23 10:48:42;;;;;;;0.00;0.00;;;;;;;18.71;71.50;98399.97;6206560;23;20204;-59
2022/10/23 10:51:47;;;;;;;0.00;0.00;;;;;;;18.85;68.66;98398.91;6095681;23;20214;-58
2022/10/23 10:54:30;;;;;;;0.00;0.00;;;;;;;18.76;67.71;98386.94;6202930;23;20208;-59
2022/10/23 10:57:00;;;;;;;0.00;0.00;;;;;;;18.79;70.50;98375.16;6202629;23;20207;-58
2022/10/23 10:59:30;;;;;;;0.00;0.00;;;;;;;19.00;70.66;98382.81;6205180;23;20213;-59
2022/10/23 11:02:05;;;;;;;0.00;0.00;;;;;;;19.22;70.08;98377.16;6201917;23;20277;-57
2022/10/23 11:04:36;;;;;;;0.00;0.00;;;;;;;19.22;69.05;98368.44;6206387;23;20518;-57
2022/10/23 11:07:08;;;;;;;0.00;0.00;;;;;;;19.45;68.34;98358.09;6201799;23;20626;-58
2022/10/23 11:09:35;;;;;;;0.00;0.00;;;;;;;19.38;70.89;98353.88;6206551;23;20201;-57
2022/10/23 11:12:02;;;;;;;0.00;0.00;;;;;;;19.41;69.85;98354.25;6202518;23;20212;-59
2022/10/23 11:14:32;;;;;;;0.00;0.00;;;;;;;19.60;68.32;98341.09;6179181;23;20201;-57
2022/10/23 11:17:07;;;;;;;0.00;0.00;;;;;;;19.69;68.91;98338.97;6175730;23;20298;-58
2022/10/23 11:19:37;;;;;;;0.00;0.00;;;;;;;19.79;68.90;98338.47;6206320;23;20202;-58
2022/10/23 11:22:10;;;;;;;0.00;0.00;;;;;;;19.73;68.86;98333.00;6201252;23;20204;-57
2022/10/23 11:24:58;;;;;;;0.00;0.00;;;;;;;19.71;68.71;98332.41;6204787;23;20253;-59
2022/10/23 11:27:41;;;;;;;0.00;0.00;;;;;;;19.50;67.54;98346.84;6203698;23;20665;-57
2022/10/23 11:30:22;;;;;;;0.00;0.00;;;;;;;19.18;68.49;98337.13;6200742;23;20199;-58
2022/10/23 11:33:19;;;;;;;0.00;0.00;;;;;;;19.01;69.83;98344.75;6205636;23;20249;-58
2022/10/23 11:35:56;;;;;;;0.00;0.00;;;;;;;18.63;71.42;98342.88;6203461;23;20211;-58
2022/10/23 11:38:28;;;;;;;0.00;0.00;;;;;;;18.55;72.44;98328.06;6189820;23;20229;-57
2022/10/23 11:40:58;;;;;;;0.00;0.00;;;;;;;18.54;75.35;98318.53;6201900;23;20203;-59
2022/10/23 11:43:30;;;;;;;0.00;0.00;;;;;;;18.51;74.02;98320.78;6205851;23;20212;-59
2022/10/23 11:45:58;;;;;;;0.00;0.00;;;;;;;18.54;74.16;98325.63;6202179;23;20211;-59
2022/10/23 11:48:36;;;;;;;0.00;0.00;;;;;;;18.61;73.06;98323.78;6205312;23;20199;-58
2022/10/23 11:51:04;;;;;;;0.00;0.00;;;;;;;18.58;73.64;98319.72;6202099;23;20212;-58
2022/10/23 11:53:40;;;;;;;0.00;0.00;;;;;;;18.82;74.26;98333.22;6204371;23;20624;-59